Time;durP1;ratioP1;P1;durP2;ratioP2;P2;SDS_P1;SDS_P2;PMS_P1;PMS_P2;Temp;Humidity;BMP_temperature;BMP_pressure;BME280_temperature;BME280_humidity;BME280_pressure;Samples;Min_cycle;Max_cycle;Signal;HPM_P1;HPM_P2
2021/05/28 00:00:07;;;;;;;38.33;26.65;;;9.30;99.90;;;;;;4988956;28;20064;-74
2021/05/28 00:02:34;;;;;;;41.03;27.02;;;9.30;99.90;;;;;;4969595;28;20456;-74
2021/05/28 00:05:03;;;;;;;42.53;27.55;;;9.30;99.90;;;;;;4985652;28;20088;-74
2021/05/28 00:07:30;;;;;;;41.92;25.67;;;9.30;99.90;;;;;;4969447;28;20403;-74
2021/05/28 00:09:58;;;;;;;39.28;27.38;;;9.30;99.90;;;;;;4953148;28;20108;-74
2021/05/28 00:12:26;;;;;;;41.45;26.30;;;9.30;99.90;;;;;;4972859;28;20068;-74
2021/05/28 00:14:53;;;;;;;37.33;27.20;;;9.30;99.90;;;;;;4989062;28;20082;-74
2021/05/28 00:17:19;;;;;;;45.75;28.10;;;9.30;99.90;;;;;;4988549;28;20050;-74
2021/05/28 00:19:46;;;;;;;44.50;27.10;;;9.30;99.90;;;;;;4988161;28;20486;-74
2021/05/28 00:22:13;;;;;;;37.08;26.17;;;9.30;99.90;;;;;;5003337;28;20074;-74
2021/05/28 00:24:40;;;;;;;38.55;27.00;;;9.30;99.90;;;;;;5004622;28;20120;-74
2021/05/28 00:27:06;;;;;;;48.75;30.23;;;9.40;99.90;;;;;;4986465;28;20038;-74
2021/05/28 00:29:33;;;;;;;46.53;29.92;;;9.40;99.90;;;;;;4987919;28;20092;-74
2021/05/28 00:32:02;;;;;;;44.42;28.98;;;9.30;99.90;;;;;;4987948;28;20077;-74
2021/05/28 00:34:29;;;;;;;48.60;28.65;;;9.20;99.90;;;;;;5000273;28;20054;-74
2021/05/28 00:36:56;;;;;;;43.00;30.48;;;9.20;99.90;;;;;;4970732;28;20050;-74
2021/05/28 00:39:23;;;;;;;52.67;30.83;;;9.20;99.90;;;;;;4986801;28;20502;-74
2021/05/28 00:41:49;;;;;;;53.72;28.98;;;9.30;99.90;;;;;;5004944;28;20062;-74
2021/05/28 00:44:23;;;;;;;52.55;31.35;;;9.20;99.90;;;;;;4994775;28;20139;-74
2021/05/28 00:46:50;;;;;;;48.97;31.48;;;9.20;99.90;;;;;;5005024;28;20053;-74
2021/05/28 00:49:17;;;;;;;53.72;31.73;;;9.20;99.90;;;;;;5004724;28;20054;-74
2021/05/28 00:51:44;;;;;;;51.05;32.05;;;9.30;99.90;;;;;;4987715;28;20088;-74
2021/05/28 00:54:11;;;;;;;45.30;29.10;;;9.30;99.90;;;;;;5005724;28;20041;-74
2021/05/28 00:56:39;;;;;;;56.90;30.02;;;9.30;99.90;;;;;;4955222;28;20069;-74
2021/05/28 00:59:06;;;;;;;42.55;27.70;;;9.30;99.90;;;;;;5004294;28;20046;-74
2021/05/28 01:01:34;;;;;;;46.60;27.33;;;9.30;99.90;;;;;;4985405;28;20111;-74
2021/05/28 01:04:02;;;;;;;48.88;28.77;;;9.30;99.90;;;;;;4987016;28;20465;-74
2021/05/28 01:06:28;;;;;;;43.53;27.95;;;9.30;99.90;;;;;;5004518;28;20041;-74
2021/05/28 01:08:55;;;;;;;45.60;28.95;;;9.30;99.90;;;;;;4953016;28;20132;-74
2021/05/28 01:11:23;;;;;;;50.03;28.75;;;9.30;99.90;;;;;;4987575;28;20366;-74
2021/05/28 01:13:50;;;;;;;42.90;28.75;;;9.40;99.90;;;;;;4971595;28;20203;-74
2021/05/28 01:16:17;;;;;;;46.72;29.55;;;9.30;99.90;;;;;;4987307;28;20417;-75
2021/05/28 01:18:44;;;;;;;46.08;30.00;;;9.30;99.90;;;;;;5004396;28;20108;-73
2021/05/28 01:21:12;;;;;;;46.92;31.13;;;9.30;99.90;;;;;;4967314;28;20057;-73
2021/05/28 01:23:38;;;;;;;46.75;29.67;;;9.30;99.90;;;;;;4985076;28;20085;-73
2021/05/28 01:26:07;;;;;;;47.53;30.20;;;9.20;99.90;;;;;;4970284;28;20477;-73
2021/05/28 01:28:34;;;;;;;43.75;29.08;;;9.30;99.90;;;;;;4987425;28;20462;-73
2021/05/28 01:31:01;;;;;;;41.95;28.08;;;9.30;99.90;;;;;;4986874;28;20050;-73
2021/05/28 01:33:28;;;;;;;43.40;28.30;;;9.20;99.90;;;;;;4986211;28;20302;-73
2021/05/28 01:35:57;;;;;;;41.35;26.48;;;9.30;99.90;;;;;;4983286;28;20057;-73
2021/05/28 01:38:25;;;;;;;38.33;25.23;;;9.30;99.90;;;;;;4985717;28;20546;-73
2021/05/28 01:40:53;;;;;;;41.83;24.13;;;9.20;99.90;;;;;;4968008;28;20065;-73
2021/05/28 01:43:20;;;;;;;44.95;27.42;;;9.20;99.90;;;;;;4986761;28;20406;-73
2021/05/28 01:45:46;;;;;;;50.10;30.98;;;9.30;99.90;;;;;;5003945;28;20598;-73
2021/05/28 01:48:13;;;;;;;50.58;33.10;;;9.30;99.90;;;;;;4986479;28;20046;-72
2021/05/28 01:50:43;;;;;;;51.63;31.98;;;9.30;99.90;;;;;;4986299;28;20169;-73
2021/05/28 01:53:11;;;;;;;47.38;30.50;;;9.30;99.90;;;;;;4987650;28;20050;-73
2021/05/28 01:55:38;;;;;;;51.97;29.58;;;9.20;99.90;;;;;;4986427;28;20050;-73
2021/05/28 01:58:09;;;;;;;48.97;30.38;;;9.20;99.90;;;;;;4970953;28;20119;-73
2021/05/28 02:00:36;;;;;;;46.35;29.35;;;9.20;99.90;;;;;;5003610;28;20053;-73
2021/05/28 02:03:03;;;;;;;47.30;29.65;;;9.30;99.90;;;;;;4987067;28;20092;-73
2021/05/28 02:05:32;;;;;;;46.03;30.15;;;9.20;99.90;;;;;;4986112;28;20526;-73
2021/05/28 02:07:58;;;;;;;46.70;29.10;;;9.10;99.90;;;;;;4970300;28;20054;-73
2021/05/28 02:10:26;;;;;;;48.22;29.30;;;9.20;99.90;;;;;;4984151;28;20080;-73
2021/05/28 02:12:53;;;;;;;45.80;27.20;;;9.20;99.90;;;;;;4984889;28;20469;-72
2021/05/28 02:15:19;;;;;;;45.28;28.92;;;9.20;99.90;;;;;;4984611;28;20049;-73
2021/05/28 02:17:46;;;;;;;48.08;29.45;;;9.20;99.90;;;;;;4986521;28;20449;-73
2021/05/28 02:20:13;;;;;;;50.90;29.77;;;9.20;99.90;;;;;;5003080;28;20058;-73
2021/05/28 02:22:40;;;;;;;53.10;33.03;;;9.20;99.90;;;;;;4970335;28;20065;-72
2021/05/28 02:25:09;;;;;;;41.33;28.25;;;9.30;99.90;;;;;;5002529;28;20112;-73
2021/05/28 02:27:36;;;;;;;50.22;27.77;;;9.20;99.90;;;;;;4969280;28;20046;-72
2021/05/28 02:30:07;;;;;;;44.85;27.05;;;9.20;99.90;;;;;;5004609;28;20231;-73
2021/05/28 02:32:34;;;;;;;47.58;28.52;;;9.20;99.90;;;;;;4969633;28;20042;-73
2021/05/28 02:35:03;;;;;;;39.28;27.08;;;9.20;99.90;;;;;;5003222;28;20141;-72
2021/05/28 02:37:30;;;;;;;53.35;32.40;;;9.20;99.90;;;;;;4986004;28;20502;-73
2021/05/28 02:39:57;;;;;;;47.15;28.63;;;9.30;99.90;;;;;;4986087;28;20038;-73
2021/05/28 02:42:24;;;;;;;47.83;28.67;;;9.30;99.90;;;;;;4985322;28;20050;-73
2021/05/28 02:44:52;;;;;;;42.28;28.92;;;9.30;99.90;;;;;;5004037;28;20312;-73
2021/05/28 02:47:21;;;;;;;44.20;27.58;;;9.30;99.90;;;;;;4984438;28;20103;-72
2021/05/28 02:49:51;;;;;;;38.63;26.02;;;9.20;99.90;;;;;;4984104;28;20050;-73
2021/05/28 02:52:17;;;;;;;53.85;26.85;;;9.20;99.90;;;;;;5001934;28;20058;-73
2021/05/28 02:54:45;;;;;;;44.95;27.67;;;9.20;99.90;;;;;;5003368;28;20120;-73
2021/05/28 02:57:12;;;;;;;50.53;26.90;;;9.20;99.90;;;;;;4985592;28;20449;-73
2021/05/28 02:59:39;;;;;;;38.10;25.98;;;9.20;99.90;;;;;;4985739;28;20049;-73
2021/05/28 03:02:06;;;;;;;39.85;25.48;;;9.20;99.90;;;;;;4969072;28;20416;-73
2021/05/28 03:04:32;;;;;;;43.22;26.33;;;9.10;99.90;;;;;;4984725;28;20081;-73
2021/05/28 03:06:59;;;;;;;43.30;26.35;;;9.10;99.90;;;;;;5002798;28;20058;-73
2021/05/28 03:09:26;;;;;;;45.75;27.30;;;9.20;99.90;;;;;;4985464;28;20080;-72
2021/05/28 03:11:53;;;;;;;46.50;27.98;;;9.10;99.90;;;;;;5003372;28;20057;-73
2021/05/28 03:14:19;;;;;;;42.17;25.35;;;9.10;99.90;;;;;;5003194;28;20068;-72
2021/05/28 03:16:46;;;;;;;30.15;21.77;;;9.00;99.90;;;;;;5001876;28;20058;-73
2021/05/28 03:19:27;;;;;;;43.63;24.27;;;9.00;99.90;;;;;;4985167;28;20255;-72
2021/05/28 03:24:43;;;;;;;34.90;23.23;;;8.90;99.90;;;;;;5002008;28;20057;-73
2021/05/28 03:27:10;;;;;;;37.85;23.70;;;9.00;99.90;;;;;;5003500;28;20057;-73
2021/05/28 03:29:38;;;;;;;35.05;23.20;;;9.00;99.90;;;;;;4989311;28;20658;-73
2021/05/28 03:32:05;;;;;;;37.72;22.85;;;9.00;99.90;;;;;;4988997;28;20046;-73
2021/05/28 03:34:32;;;;;;;33.33;22.63;;;9.00;99.90;;;;;;4987948;28;20054;-73
2021/05/28 03:36:59;;;;;;;37.90;23.65;;;9.00;99.90;;;;;;4989399;28;20050;-73
2021/05/28 03:39:27;;;;;;;36.50;22.83;;;9.00;99.90;;;;;;4989706;28;20034;-73
2021/05/28 03:41:53;;;;;;;35.03;22.13;;;9.00;99.90;;;;;;4969091;28;20042;-73
2021/05/28 03:44:20;;;;;;;34.88;23.55;;;9.10;99.90;;;;;;4992481;28;20092;-73
2021/05/28 03:46:47;;;;;;;36.67;22.17;;;9.10;99.90;;;;;;5006607;28;20443;-73
2021/05/28 03:49:14;;;;;;;33.42;23.00;;;9.10;99.90;;;;;;4987155;28;20052;-73
2021/05/28 03:51:41;;;;;;;40.10;23.55;;;9.10;99.90;;;;;;5002334;28;20060;-73
2021/05/28 03:54:07;;;;;;;29.90;19.85;;;9.00;99.90;;;;;;5005169;28;20475;-73
2021/05/28 03:56:34;;;;;;;26.08;19.77;;;8.90;99.90;;;;;;4988139;28;20054;-73
2021/05/28 03:59:01;;;;;;;32.03;20.77;;;8.80;99.90;;;;;;4985948;28;20042;-73
2021/05/28 04:01:28;;;;;;;31.27;20.42;;;8.90;99.90;;;;;;5004432;28;20066;-73
2021/05/28 04:03:55;;;;;;;32.30;21.17;;;8.90;99.90;;;;;;5005194;28;20691;-73
2021/05/28 04:06:21;;;;;;;40.47;21.08;;;8.80;99.90;;;;;;4985811;28;20429;-73
2021/05/28 04:08:48;;;;;;;35.00;20.20;;;8.80;99.90;;;;;;5004831;28;20580;-73
2021/05/28 04:11:15;;;;;;;35.75;20.60;;;8.80;99.90;;;;;;4988249;28;20225;-73
2021/05/28 04:13:42;;;;;;;29.38;19.70;;;8.80;99.90;;;;;;5006023;28;20061;-73
2021/05/28 04:16:09;;;;;;;40.75;22.70;;;8.80;99.90;;;;;;4987876;28;20092;-73
2021/05/28 04:18:36;;;;;;;33.33;21.55;;;8.80;99.90;;;;;;5005082;28;20441;-73
2021/05/28 04:21:03;;;;;;;30.33;20.48;;;8.80;99.90;;;;;;5001409;28;20145;-73
2021/05/28 04:23:30;;;;;;;46.20;21.15;;;8.80;99.90;;;;;;4988113;28;20034;-73
2021/05/28 04:25:57;;;;;;;31.30;20.13;;;8.80;99.90;;;;;;4983519;28;20170;-73
2021/05/28 04:28:25;;;;;;;28.05;18.25;;;8.80;99.90;;;;;;4988236;28;20076;-73
2021/05/28 04:30:53;;;;;;;24.73;17.77;;;8.90;99.90;;;;;;5005176;28;20096;-73
2021/05/28 04:33:20;;;;;;;25.92;17.17;;;8.80;99.90;;;;;;4986633;28;20054;-73
2021/05/28 04:35:46;;;;;;;23.45;14.10;;;8.70;99.90;;;;;;5003171;28;20053;-73
2021/05/28 04:38:13;;;;;;;21.45;13.73;;;8.70;99.90;;;;;;4985755;28;20076;-74
2021/05/28 04:40:41;;;;;;;25.80;13.90;;;8.60;99.90;;;;;;4968553;28;20108;-73
2021/05/28 04:43:08;;;;;;;23.98;12.98;;;8.60;99.90;;;;;;4987578;28;20426;-73
2021/05/28 04:45:35;;;;;;;21.90;13.68;;;8.70;99.90;;;;;;4987086;28;20148;-73
2021/05/28 04:48:02;;;;;;;28.00;15.70;;;8.60;99.90;;;;;;4986346;28;20050;-73
2021/05/28 04:50:33;;;;;;;24.17;15.23;;;8.70;99.90;;;;;;5004137;28;20050;-73
2021/05/28 04:53:02;;;;;;;24.92;14.48;;;8.90;99.90;;;;;;4985583;28;20046;-74
2021/05/28 04:55:29;;;;;;;22.63;15.02;;;9.00;99.90;;;;;;4998514;28;20498;-73
2021/05/28 04:57:57;;;;;;;19.40;13.60;;;9.00;99.90;;;;;;5005074;28;20060;-73
2021/05/28 05:00:25;;;;;;;21.70;14.55;;;9.00;99.90;;;;;;5004715;28;20449;-73
2021/05/28 05:02:52;;;;;;;25.65;14.25;;;8.90;99.90;;;;;;4984538;28;20447;-73
2021/05/28 05:05:19;;;;;;;27.88;13.45;;;9.00;99.90;;;;;;5003982;28;20104;-73
2021/05/28 05:07:46;;;;;;;22.27;14.70;;;9.10;99.90;;;;;;5005122;28;20096;-73
2021/05/28 05:10:13;;;;;;;24.92;13.52;;;9.30;99.90;;;;;;4968751;28;20046;-73
2021/05/28 05:12:41;;;;;;;23.70;12.70;;;9.40;99.90;;;;;;4984318;28;20112;-73
2021/05/28 05:15:10;;;;;;;29.30;12.90;;;9.30;99.90;;;;;;5001274;28;20128;-73
2021/05/28 05:17:37;;;;;;;19.75;12.60;;;9.20;99.90;;;;;;4986309;28;20068;-72
2021/05/28 05:20:06;;;;;;;17.50;12.35;;;9.20;99.90;;;;;;5004372;28;20057;-73
2021/05/28 05:22:32;;;;;;;19.13;13.23;;;9.10;99.90;;;;;;4984223;28;20081;-73
2021/05/28 05:24:59;;;;;;;17.67;11.40;;;9.20;99.90;;;;;;4986535;28;20046;-73
2021/05/28 05:27:26;;;;;;;18.73;12.05;;;9.10;99.90;;;;;;4983923;28;20551;-73
2021/05/28 05:29:53;;;;;;;22.45;13.18;;;9.10;99.90;;;;;;4987160;28;20529;-73
2021/05/28 05:32:20;;;;;;;19.45;12.25;;;9.20;99.90;;;;;;5004477;28;20046;-73
2021/05/28 05:34:47;;;;;;;22.52;12.63;;;9.20;99.90;;;;;;4987191;28;20054;-73
2021/05/28 05:37:14;;;;;;;21.63;12.75;;;9.20;99.90;;;;;;4969986;28;20747;-74
2021/05/28 05:39:40;;;;;;;22.27;12.27;;;9.30;99.90;;;;;;4982512;28;20084;-73
2021/05/28 05:42:07;;;;;;;24.40;14.20;;;9.20;99.90;;;;;;4987120;28;20446;-73
2021/05/28 05:44:34;;;;;;;20.95;11.98;;;9.30;99.90;;;;;;5004332;28;20050;-73
2021/05/28 05:47:01;;;;;;;15.48;11.82;;;9.40;99.90;;;;;;4967657;28;20413;-73
2021/05/28 05:49:28;;;;;;;18.23;11.93;;;9.70;99.90;;;;;;4984841;28;20111;-73
2021/05/28 05:51:55;;;;;;;19.50;13.85;;;9.80;99.90;;;;;;4982648;28;20054;-73
2021/05/28 05:54:21;;;;;;;18.52;13.60;;;10.00;99.90;;;;;;4984848;28;20575;-73
2021/05/28 05:56:48;;;;;;;22.73;15.00;;;10.20;99.90;;;;;;4985074;28;20076;-73
2021/05/28 05:59:15;;;;;;;25.13;17.40;;;10.20;99.90;;;;;;5003130;28;20054;-73
2021/05/28 06:01:42;;;;;;;26.73;17.20;;;10.40;99.90;;;;;;4968352;28;20462;-73
2021/05/28 06:04:08;;;;;;;19.67;15.05;;;10.30;99.90;;;;;;5001820;28;20046;-73
2021/05/28 06:06:35;;;;;;;21.10;13.32;;;10.40;99.90;;;;;;4985190;28;20042;-73
2021/05/28 06:09:02;;;;;;;24.05;14.57;;;10.20;99.90;;;;;;4982288;28;20691;-73
2021/05/28 06:11:30;;;;;;;18.85;13.95;;;10.30;99.90;;;;;;5003084;28;20255;-73
2021/05/28 06:13:56;;;;;;;19.42;14.43;;;10.30;99.90;;;;;;5003543;28;20119;-73
2021/05/28 06:16:23;;;;;;;22.00;13.88;;;10.50;99.90;;;;;;5002941;28;20061;-73
2021/05/28 06:18:50;;;;;;;17.77;14.65;;;10.40;99.90;;;;;;4970581;28;20509;-73
2021/05/28 06:21:17;;;;;;;18.65;14.48;;;10.40;99.90;;;;;;4980916;28;20517;-72
2021/05/28 06:23:44;;;;;;;20.27;13.95;;;10.20;99.90;;;;;;4970492;28;20107;-74
2021/05/28 06:26:10;;;;;;;19.52;15.07;;;10.10;99.90;;;;;;4982721;28;20042;-74
2021/05/28 06:28:37;;;;;;;21.40;15.13;;;10.30;99.90;;;;;;4992140;28;20043;-74
2021/05/28 06:31:04;;;;;;;19.27;14.50;;;10.50;99.90;;;;;;4970064;28;20057;-74
2021/05/28 06:33:31;;;;;;;20.45;15.73;;;10.70;99.90;;;;;;4985454;28;20037;-72
2021/05/28 06:35:58;;;;;;;19.80;15.57;;;10.70;99.90;;;;;;4969994;28;20328;-72
2021/05/28 06:38:24;;;;;;;21.25;15.88;;;10.80;99.90;;;;;;4970387;28;20502;-73
2021/05/28 06:40:51;;;;;;;20.40;16.10;;;10.90;99.90;;;;;;5003479;28;20092;-72
2021/05/28 06:43:18;;;;;;;23.58;16.33;;;11.00;99.90;;;;;;5004798;28;20330;-73
2021/05/28 06:45:45;;;;;;;25.65;15.65;;;11.10;99.90;;;;;;4986019;28;20446;-73
2021/05/28 06:48:11;;;;;;;23.77;17.58;;;11.30;99.90;;;;;;4985468;28;20367;-73
2021/05/28 06:50:41;;;;;;;26.63;19.40;;;11.20;99.90;;;;;;4969823;28;20147;-74
2021/05/28 06:53:09;;;;;;;20.70;16.92;;;11.20;99.90;;;;;;4974296;28;20092;-73
2021/05/28 06:55:36;;;;;;;18.10;15.38;;;11.30;99.90;;;;;;4974611;28;20049;-73
2021/05/28 06:58:04;;;;;;;18.00;13.80;;;11.60;99.90;;;;;;5005153;28;20100;-73
2021/05/28 07:00:34;;;;;;;16.10;13.88;;;12.10;99.90;;;;;;4989974;28;20149;-74
2021/05/28 07:03:01;;;;;;;15.50;14.00;;;12.40;99.90;;;;;;4990704;28;20048;-74
2021/05/28 07:05:28;;;;;;;20.85;15.30;;;12.80;99.90;;;;;;5005207;28;20703;-74
2021/05/28 07:07:56;;;;;;;15.40;13.98;;;12.80;99.90;;;;;;4966413;28;20057;-74
2021/05/28 07:10:23;;;;;;;17.35;15.60;;;12.70;99.90;;;;;;4985790;28;20077;-74
2021/05/28 07:12:50;;;;;;;16.50;14.60;;;12.60;99.90;;;;;;4986661;28;20061;-74
2021/05/28 07:15:18;;;;;;;18.98;13.75;;;12.60;99.90;;;;;;5003185;28;20062;-74
2021/05/28 07:17:45;;;;;;;19.42;14.35;;;12.40;99.90;;;;;;5004753;28;20305;-74
2021/05/28 07:20:13;;;;;;;16.40;13.65;;;12.10;99.90;;;;;;4984462;28;20101;-72
2021/05/28 07:22:40;;;;;;;18.95;14.10;;;11.90;99.90;;;;;;4984832;28;20058;-72
2021/05/28 07:25:09;;;;;;;17.10;15.30;;;11.70;99.90;;;;;;5002715;28;20053;-72
2021/05/28 07:27:36;;;;;;;15.20;13.60;;;11.50;99.90;;;;;;4987089;28;20438;-72
2021/05/28 07:30:07;;;;;;;25.55;15.77;;;11.70;99.90;;;;;;4981768;28;20057;-72
2021/05/28 07:32:38;;;;;;;25.92;16.20;;;11.80;99.90;;;;;;4966427;28;20372;-72
2021/05/28 07:35:07;;;;;;;22.83;17.33;;;12.00;99.90;;;;;;4982738;28;20046;-72
2021/05/28 07:37:35;;;;;;;20.52;15.93;;;11.80;99.90;;;;;;4965191;28;20069;-72
2021/05/28 07:40:04;;;;;;;19.83;15.35;;;11.70;99.90;;;;;;4985011;28;20074;-72
2021/05/28 07:42:31;;;;;;;21.25;14.73;;;11.80;99.90;;;;;;4985172;28;20054;-72
2021/05/28 07:44:58;;;;;;;18.02;15.52;;;12.00;99.90;;;;;;5003139;28;20151;-72
2021/05/28 07:47:26;;;;;;;17.92;15.65;;;12.50;99.90;;;;;;4985046;28;20049;-72
2021/05/28 07:49:53;;;;;;;16.55;14.90;;;13.00;99.90;;;;;;5001361;28;20053;-72
2021/05/28 07:52:19;;;;;;;20.00;16.27;;;13.50;99.90;;;;;;4979450;28;20054;-72
2021/05/28 07:54:46;;;;;;;18.48;16.95;;;13.80;99.90;;;;;;4979272;28;20286;-72
2021/05/28 07:57:13;;;;;;;18.65;17.15;;;13.80;99.90;;;;;;4969469;28;20045;-71
2021/05/28 07:59:40;;;;;;;19.20;17.15;;;13.70;99.90;;;;;;5001460;28;20046;-72
2021/05/28 08:02:08;;;;;;;21.98;19.63;;;13.20;99.90;;;;;;4981705;28;20065;-72
2021/05/28 08:04:34;;;;;;;22.63;18.10;;;12.70;99.90;;;;;;4999787;28;20037;-71
2021/05/28 08:07:01;;;;;;;20.95;18.90;;;12.30;99.90;;;;;;4970371;28;20149;-72
2021/05/28 08:09:28;;;;;;;17.58;15.90;;;11.90;99.90;;;;;;4984521;28;20422;-72
2021/05/28 08:11:55;;;;;;;18.05;16.10;;;12.40;99.90;;;;;;4986196;28;20053;-71
2021/05/28 08:14:22;;;;;;;18.40;15.40;;;12.90;99.90;;;;;;5004817;28;20096;-72
2021/05/28 08:16:48;;;;;;;22.33;16.58;;;13.30;99.90;;;;;;4986925;28;20049;-72
2021/05/28 08:19:15;;;;;;;18.17;16.45;;;13.30;99.90;;;;;;4988457;28;20057;-72
2021/05/28 08:21:42;;;;;;;19.27;17.52;;;13.50;99.90;;;;;;4986069;28;20392;-72
2021/05/28 08:24:09;;;;;;;18.58;16.70;;;13.90;99.90;;;;;;4988264;28;20053;-72
2021/05/28 08:26:36;;;;;;;19.80;18.40;;;14.30;99.90;;;;;;5003921;28;20048;-72
2021/05/28 08:29:03;;;;;;;20.50;18.80;;;14.50;99.90;;;;;;5005787;28;20509;-71
2021/05/28 08:31:31;;;;;;;21.77;19.75;;;14.60;99.90;;;;;;5001029;28;20049;-72
2021/05/28 08:33:58;;;;;;;21.00;19.27;;;14.10;99.90;;;;;;4986609;28;20123;-72
2021/05/28 08:36:25;;;;;;;19.85;18.23;;;14.00;99.90;;;;;;4984970;28;20080;-72
2021/05/28 08:38:52;;;;;;;19.88;17.95;;;13.80;99.90;;;;;;5020040;28;20054;-72
2021/05/28 08:41:19;;;;;;;19.60;17.80;;;14.00;99.90;;;;;;4997616;28;20054;-72
2021/05/28 08:43:50;;;;;;;20.33;18.70;;;14.30;99.90;;;;;;4999954;28;20113;-72
2021/05/28 08:46:18;;;;;;;22.00;20.02;;;14.40;99.90;;;;;;4981881;28;20525;-72
2021/05/28 08:48:45;;;;;;;21.17;19.25;;;14.40;99.90;;;;;;5014346;28;20073;-72
2021/05/28 08:51:13;;;;;;;22.38;20.27;;;14.60;99.90;;;;;;4988948;28;20057;-71
2021/05/28 08:53:39;;;;;;;20.50;19.00;;;14.80;99.90;;;;;;4988264;28;20090;-72
2021/05/28 08:56:10;;;;;;;21.70;19.60;;;15.00;99.90;;;;;;4971153;28;20237;-72
2021/05/28 08:58:38;;;;;;;21.40;19.65;;;15.40;99.90;;;;;;4985901;28;20054;-72
2021/05/28 09:01:08;;;;;;;19.15;17.65;;;15.80;99.90;;;;;;4986208;28;20103;-72
2021/05/28 09:03:36;;;;;;;21.65;19.92;;;15.60;99.90;;;;;;4984789;28;20054;-72
2021/05/28 09:06:18;;;;;;;21.85;20.02;;;15.10;99.90;;;;;;4969437;28;20080;-72
2021/05/28 09:08:45;;;;;;;22.33;20.30;;;15.10;99.90;;;;;;5003656;28;20058;-72
2021/05/28 09:11:15;;;;;;;20.83;19.17;;;15.40;99.90;;;;;;4969024;28;20221;-72
2021/05/28 09:13:49;;;;;;;21.13;19.10;;;15.50;99.90;;;;;;5002534;28;20049;-72
2021/05/28 09:16:18;;;;;;;21.70;19.88;;;15.30;99.90;;;;;;5004324;28;20572;-72
2021/05/28 09:18:57;;;;;;;22.48;20.50;;;15.40;99.90;;;;;;4987368;28;20058;-72
2021/05/28 09:21:33;;;;;;;23.70;20.88;;;15.70;99.90;;;;;;4981017;28;20057;-72
2021/05/28 09:24:02;;;;;;;25.15;21.65;;;15.80;99.90;;;;;;4984811;28;20045;-72
2021/05/28 09:26:31;;;;;;;20.73;19.23;;;15.90;99.90;;;;;;4987779;28;20378;-72
2021/05/28 09:28:59;;;;;;;20.40;18.23;;;16.00;99.90;;;;;;4969764;28;20045;-72
2021/05/28 09:31:29;;;;;;;22.08;20.15;;;16.10;99.90;;;;;;4982698;28;20480;-72
2021/05/28 09:33:57;;;;;;;23.40;21.23;;;16.40;99.90;;;;;;4986811;28;20054;-73
2021/05/28 09:36:26;;;;;;;21.77;19.90;;;16.50;99.90;;;;;;4986952;28;20069;-73
2021/05/28 09:38:57;;;;;;;24.08;21.80;;;16.30;99.90;;;;;;4986131;28;20057;-73
2021/05/28 09:41:57;;;;;;;23.05;20.75;;;15.60;99.90;;;;;;4987806;28;20054;-72
2021/05/28 09:44:29;;;;;;;21.70;19.70;;;15.40;99.90;;;;;;4951864;28;20054;-73
2021/05/28 09:47:14;;;;;;;21.95;19.90;;;15.50;99.90;;;;;;4970395;28;20052;-73
2021/05/28 09:49:48;;;;;;;20.10;18.35;;;15.70;99.90;;;;;;5003127;28;20142;-73
2021/05/28 09:52:22;;;;;;;20.33;18.60;;;16.10;99.90;;;;;;4985714;28;20054;-73
2021/05/28 09:54:57;;;;;;;18.55;17.13;;;16.80;99.90;;;;;;4986966;28;20049;-73
2021/05/28 09:57:31;;;;;;;;;;;16.80;99.90;;;;;;4980443;28;20054;-74
2021/05/28 09:59:59;;;;;;;18.63;17.25;;;17.10;99.90;;;;;;4963858;28;19956;-73
2021/05/28 10:02:33;;;;;;;21.98;20.17;;;17.50;99.90;;;;;;4980045;28;20042;-73
2021/05/28 10:05:01;;;;;;;20.70;18.85;;;17.50;99.90;;;;;;4974830;28;20069;-72
2021/05/28 10:07:29;;;;;;;20.02;18.30;;;17.50;99.90;;;;;;4998040;28;20050;-72
2021/05/28 10:09:56;;;;;;;20.20;18.67;;;17.50;99.90;;;;;;4986105;28;20049;-72
2021/05/28 10:12:25;;;;;;;19.50;17.98;;;17.70;99.90;;;;;;4969067;28;20053;-73
2021/05/28 10:14:52;;;;;;;17.17;15.88;;;17.50;99.90;;;;;;4986563;28;20080;-73
2021/05/28 10:17:20;;;;;;;19.98;18.20;;;17.50;99.90;;;;;;4999322;28;20346;-73
2021/05/28 10:19:48;;;;;;;19.73;17.92;;;17.10;99.90;;;;;;4985912;28;20061;-74
2021/05/28 10:22:18;;;;;;;18.60;17.20;;;17.10;99.90;;;;;;4983480;28;20058;-74
2021/05/28 10:24:46;;;;;;;17.75;16.25;;;16.80;99.90;;;;;;4986636;28;20050;-74
2021/05/28 10:27:21;;;;;;;19.05;17.40;;;17.00;99.90;;;;;;5005345;28;20042;-73
2021/05/28 10:29:53;;;;;;;17.30;16.08;;;17.40;99.90;;;;;;4984281;28;20073;-73
2021/05/28 10:32:20;;;;;;;16.52;15.32;;;17.60;99.90;;;;;;4983926;28;20116;-71
2021/05/28 10:35:17;;;;;;;17.45;16.23;;;18.00;99.90;;;;;;4983277;28;20684;-72
2021/05/28 10:37:45;;;;;;;18.02;16.60;;;17.90;99.90;;;;;;4977059;28;20042;-72
2021/05/28 10:40:31;;;;;;;16.73;15.45;;;17.90;99.90;;;;;;4982766;28;20046;-73
2021/05/28 10:43:06;;;;;;;19.02;17.58;;;17.80;99.90;;;;;;4981883;28;20408;-72
2021/05/28 10:45:55;;;;;;;18.08;16.70;;;17.90;99.90;;;;;;4985279;28;20494;-72
2021/05/28 10:48:38;;;;;;;18.75;17.25;;;17.90;99.90;;;;;;5002191;28;20049;-72
2021/05/28 10:51:25;;;;;;;19.35;17.67;;;17.90;99.90;;;;;;4998207;28;20050;-73
2021/05/28 10:53:52;;;;;;;17.52;16.42;;;17.80;99.90;;;;;;4960717;28;20505;-72
2021/05/28 10:56:28;;;;;;;18.77;17.38;;;17.80;99.90;;;;;;4989362;28;20038;-72
2021/05/28 10:58:57;;;;;;;19.95;18.30;;;17.80;99.90;;;;;;5002063;28;20043;-72
2021/05/28 11:01:33;;;;;;;19.90;18.23;;;17.70;99.90;;;;;;5002170;28;20053;-72
2021/05/28 11:04:08;;;;;;;21.20;19.40;;;17.80;99.90;;;;;;4984228;28;20050;-72
2021/05/28 11:07:02;;;;;;;21.75;19.92;;;17.90;99.90;;;;;;4999558;28;20101;-73
2021/05/28 11:09:39;;;;;;;20.85;19.23;;;17.80;99.90;;;;;;5002552;28;20050;-72
2021/05/28 11:12:12;;;;;;;19.67;18.27;;;18.00;99.90;;;;;;4997277;28;20061;-73
2021/05/28 11:15:20;;;;;;;19.27;17.77;;;17.80;99.90;;;;;;5002407;28;20064;-72
2021/05/28 11:17:59;;;;;;;19.05;17.45;;;17.60;99.90;;;;;;4985757;28;20384;-73
2021/05/28 11:20:32;;;;;;;20.65;19.13;;;17.80;99.90;;;;;;4985273;28;20145;-72
2021/05/28 11:23:05;;;;;;;19.88;18.38;;;17.90;99.90;;;;;;4982418;28;20449;-73
2021/05/28 11:25:32;;;;;;;21.20;19.25;;;17.90;99.90;;;;;;4984953;28;20406;-73
2021/05/28 11:28:08;;;;;;;20.65;19.15;;;17.70;99.90;;;;;;4985662;28;20049;-72
2021/05/28 11:30:50;;;;;;;20.80;19.13;;;17.70;99.90;;;;;;4984669;28;20480;-73
2021/05/28 11:33:32;;;;;;;20.38;18.77;;;17.80;99.90;;;;;;5001392;28;20060;-73
2021/05/28 11:36:00;;;;;;;21.05;19.25;;;18.30;99.90;;;;;;4968121;28;20568;-73
2021/05/28 11:38:36;;;;;;;19.13;17.90;;;18.50;99.90;;;;;;4985202;28;20488;-75
2021/05/28 11:41:03;;;;;;;19.65;18.30;;;18.60;99.90;;;;;;4990162;28;20051;-77
2021/05/28 11:43:36;;;;;;;19.92;18.67;;;18.70;99.90;;;;;;4996982;28;20481;-77
2021/05/28 11:46:03;;;;;;;20.35;18.95;;;18.70;99.90;;;;;;4986936;28;20045;-76
2021/05/28 11:48:30;;;;;;;20.33;19.05;;;18.60;99.90;;;;;;4970473;28;20509;-76
2021/05/28 11:51:02;;;;;;;19.83;18.58;;;18.50;99.90;;;;;;4987968;28;20394;-76
2021/05/28 11:53:35;;;;;;;19.45;17.80;;;18.30;99.90;;;;;;4973198;28;20064;-76
2021/05/28 11:56:03;;;;;;;19.98;18.58;;;18.30;99.90;;;;;;4992126;28;20049;-76
2021/05/28 11:58:33;;;;;;;20.25;18.63;;;18.40;99.90;;;;;;4983631;28;20556;-77
2021/05/28 12:01:02;;;;;;;20.65;19.20;;;18.20;99.90;;;;;;4971848;28;20513;-77
2021/05/28 12:03:29;;;;;;;18.92;17.73;;;17.80;99.90;;;;;;4988922;28;20064;-77
2021/05/28 12:05:56;;;;;;;21.52;19.90;;;17.90;99.90;;;;;;5004863;28;20042;-76
2021/05/28 12:08:29;;;;;;;20.33;18.98;;;17.80;99.90;;;;;;4987945;28;20076;-76
2021/05/28 12:11:03;;;;;;;21.42;19.92;;;18.10;99.90;;;;;;5005642;28;20084;-76
2021/05/28 12:13:35;;;;;;;20.33;18.70;;;18.20;99.90;;;;;;4973195;28;20394;-76
2021/05/28 12:16:11;;;;;;;21.00;19.30;;;18.60;99.90;;;;;;4971113;28;20168;-76
2021/05/28 12:18:42;;;;;;;21.02;19.48;;;18.70;99.90;;;;;;4988729;28;20060;-77
2021/05/28 12:21:15;;;;;;;21.67;19.90;;;18.60;99.90;;;;;;5002325;28;20065;-78
2021/05/28 12:23:47;;;;;;;23.10;21.20;;;18.30;99.90;;;;;;5003271;23;20046;31
2021/05/28 12:26:23;;;;;;;21.85;20.20;;;17.90;99.90;;;;;;4927711;28;20051;-72
2021/05/28 12:28:58;;;;;;;23.13;20.20;;;17.30;99.90;;;;;;4934570;28;20070;-72
2021/05/28 12:31:33;;;;;;;21.00;19.40;;;17.20;99.90;;;;;;4930739;29;20524;-72
2021/05/28 12:34:06;;;;;;;21.60;19.90;;;16.90;99.90;;;;;;4931901;28;20070;-73
2021/05/28 12:36:40;;;;;;;21.13;19.83;;;16.70;99.90;;;;;;4948664;28;20616;-73
2021/05/28 12:39:09;;;;;;;19.40;18.17;;;16.90;99.90;;;;;;4949658;28;20462;-72
2021/05/28 12:41:38;;;;;;;20.05;18.55;;;17.40;99.90;;;;;;4947830;28;20597;-72